sensor_id;sensor_type;location;lat;lon;timestamp;pressure;altitude;pressure_sealevel;temperature;humidity
75521;BME280;64102;48.628;9.002;2023-04-05T05:13:14;96406.00;;;-4.53;91.29
75521;BME280;64102;48.628;9.002;2023-04-05T05:15:41;96412.44;;;-4.12;88.76
75521;BME280;64102;48.628;9.002;2023-04-05T05:18:06;96413.78;;;-3.71;87.35
75521;BME280;64102;48.628;9.002;2023-04-05T05:20:32;96419.34;;;-3.32;85.04
75521;BME280;64102;48.628;9.002;2023-04-05T05:22:58;96413.00;;;-2.91;84.57
75521;BME280;64102;48.628;9.002;2023-04-05T05:25:25;96418.16;;;-2.45;79.85
75521;BME280;64102;48.628;9.002;2023-04-05T05:27:51;96410.78;;;-2.03;79.97
75521;BME280;64102;48.628;9.002;2023-04-05T05:30:17;96413.56;;;-1.87;75.65
75521;BME280;64102;48.628;9.002;2023-04-05T05:32:42;96417.09;;;-1.46;77.61
75521;BME280;64102;48.628;9.002;2023-04-05T05:35:08;96413.69;;;-1.23;72.53
75521;BME280;64102;48.628;9.002;2023-04-05T05:37:34;96406.13;;;-0.81;71.48
75521;BME280;64102;48.628;9.002;2023-04-05T05:40:01;96406.25;;;-0.44;70.82
75521;BME280;64102;48.628;9.002;2023-04-05T05:42:26;96412.63;;;-0.15;70.26
75521;BME280;64102;48.628;9.002;2023-04-05T05:44:52;96406.63;;;0.25;69.00
75521;BME280;64102;48.628;9.002;2023-04-05T05:47:17;96404.16;;;0.42;67.41
75521;BME280;64102;48.628;9.002;2023-04-05T05:49:43;96409.84;;;0.66;65.89
75521;BME280;64102;48.628;9.002;2023-04-05T05:52:08;96402.94;;;1.04;64.64
75521;BME280;64102;48.628;9.002;2023-04-05T05:54:33;96403.13;;;1.35;62.47
75521;BME280;64102;48.628;9.002;2023-04-05T05:56:59;96410.06;;;1.31;62.07
75521;BME280;64102;48.628;9.002;2023-04-05T05:59:26;96410.59;;;1.55;62.37
75521;BME280;64102;48.628;9.002;2023-04-05T06:01:51;96409.25;;;2.31;59.63
75521;BME280;64102;48.628;9.002;2023-04-05T06:04:17;96412.59;;;2.79;57.68
75521;BME280;64102;48.628;9.002;2023-04-05T06:06:43;96419.25;;;3.42;56.33
75521;BME280;64102;48.628;9.002;2023-04-05T06:09:11;96420.25;;;3.84;54.88
75521;BME280;64102;48.628;9.002;2023-04-05T06:11:36;96415.06;;;4.14;52.73
75521;BME280;64102;48.628;9.002;2023-04-05T06:14:02;96411.13;;;4.50;51.92
75521;BME280;64102;48.628;9.002;2023-04-05T06:16:27;96407.56;;;4.80;50.44
75521;BME280;64102;48.628;9.002;2023-04-05T06:18:55;96411.09;;;5.18;49.05
75521;BME280;64102;48.628;9.002;2023-04-05T06:21:21;96405.25;;;5.56;49.17
75521;BME280;64102;48.628;9.002;2023-04-05T06:23:46;96403.00;;;5.51;47.91
75521;BME280;64102;48.628;9.002;2023-04-05T06:26:19;96406.78;;;5.58;47.01
75521;BME280;64102;48.628;9.002;2023-04-05T06:28:48;96408.19;;;6.14;47.20
75521;BME280;64102;48.628;9.002;2023-04-05T06:31:15;96407.06;;;6.06;47.16
75521;BME280;64102;48.628;9.002;2023-04-05T06:33:41;96415.25;;;6.23;45.95
75521;BME280;64102;48.628;9.002;2023-04-05T06:36:07;96413.91;;;6.80;45.29
75521;BME280;64102;48.628;9.002;2023-04-05T06:38:32;96412.13;;;7.40;44.63
75521;BME280;64102;48.628;9.002;2023-04-05T06:40:57;96410.16;;;7.55;44.90
75521;BME280;64102;48.628;9.002;2023-04-05T06:43:23;96414.03;;;7.26;43.66
75521;BME280;64102;48.628;9.002;2023-04-05T06:45:48;96415.75;;;7.14;45.42
75521;BME280;64102;48.628;9.002;2023-04-05T06:48:13;96412.81;;;7.99;44.16
75521;BME280;64102;48.628;9.002;2023-04-05T06:50:39;96416.88;;;8.37;41.58
75521;BME280;64102;48.628;9.002;2023-04-05T06:53:05;96416.41;;;8.43;41.00
75521;BME280;64102;48.628;9.002;2023-04-05T06:55:31;96418.72;;;8.79;40.34
75521;BME280;64102;48.628;9.002;2023-04-05T06:57:57;96419.44;;;8.26;41.19
75521;BME280;64102;48.628;9.002;2023-04-05T07:00:22;96417.25;;;7.40;42.06
75521;BME280;64102;48.628;9.002;2023-04-05T07:02:48;96426.22;;;6.38;45.06
75521;BME280;64102;48.628;9.002;2023-04-05T07:05:13;96428.16;;;5.97;45.77
75521;BME280;64102;48.628;9.002;2023-04-05T07:07:39;96418.00;;;6.82;45.64
75521;BME280;64102;48.628;9.002;2023-04-05T07:10:05;96426.94;;;7.83;42.26
75521;BME280;64102;48.628;9.002;2023-04-05T07:12:31;96425.63;;;7.42;43.11
75521;BME280;64102;48.628;9.002;2023-04-05T07:14:58;96427.81;;;8.28;40.81
75521;BME280;64102;48.628;9.002;2023-04-05T07:17:24;96426.06;;;8.95;39.68
75521;BME280;64102;48.628;9.002;2023-04-05T07:19:49;96423.09;;;9.11;39.02
75521;BME280;64102;48.628;9.002;2023-04-05T07:22:15;96421.69;;;9.70;38.47
75521;BME280;64102;48.628;9.002;2023-04-05T07:24:40;96418.94;;;9.62;36.70
75521;BME280;64102;48.628;9.002;2023-04-05T07:27:06;96423.78;;;9.97;36.90
75521;BME280;64102;48.628;9.002;2023-04-05T07:29:31;96417.84;;;10.48;35.53
75521;BME280;64102;48.628;9.002;2023-04-05T07:31:59;96415.63;;;10.73;34.38
75521;BME280;64102;48.628;9.002;2023-04-05T07:34:24;96415.84;;;10.10;37.14
75521;BME280;64102;48.628;9.002;2023-04-05T07:36:51;96416.34;;;10.95;34.52
75521;BME280;64102;48.628;9.002;2023-04-05T07:39:16;96414.19;;;11.00;35.81
75521;BME280;64102;48.628;9.002;2023-04-05T07:41:42;96420.88;;;11.69;33.37
75521;BME280;64102;48.628;9.002;2023-04-05T07:44:07;96414.56;;;11.74;32.61
75521;BME280;64102;48.628;9.002;2023-04-05T07:46:33;96427.53;;;10.14;36.07
75521;BME280;64102;48.628;9.002;2023-04-05T07:48:59;96419.78;;;10.14;34.89
75521;BME280;64102;48.628;9.002;2023-04-05T07:51:24;96425.34;;;10.60;33.03
75521;BME280;64102;48.628;9.002;2023-04-05T07:53:51;96424.44;;;11.59;31.42
75521;BME280;64102;48.628;9.002;2023-04-05T07:56:16;96432.59;;;12.02;32.00
75521;BME280;64102;48.628;9.002;2023-04-05T07:58:42;96428.38;;;11.92;32.05
75521;BME280;64102;48.628;9.002;2023-04-05T08:01:09;96426.78;;;12.74;29.62
75521;BME280;64102;48.628;9.002;2023-04-05T08:03:35;96432.53;;;12.68;30.15
75521;BME280;64102;48.628;9.002;2023-04-05T08:06:13;96429.00;;;12.69;29.97
75521;BME280;64102;48.628;9.002;2023-04-05T08:08:42;96430.19;;;11.91;30.82
75521;BME280;64102;48.628;9.002;2023-04-05T08:11:07;96430.56;;;11.48;32.06
75521;BME280;64102;48.628;9.002;2023-04-05T08:13:33;96429.22;;;10.75;32.08
75521;BME280;64102;48.628;9.002;2023-04-05T08:15:59;96430.69;;;11.37;32.52
75521;BME280;64102;48.628;9.002;2023-04-05T08:18:27;96426.91;;;11.80;31.18
75521;BME280;64102;48.628;9.002;2023-04-05T08:20:53;96425.94;;;11.33;30.54
75521;BME280;64102;48.628;9.002;2023-04-05T08:23:19;96430.19;;;12.47;30.08
75521;BME280;64102;48.628;9.002;2023-04-05T08:25:45;96431.13;;;10.83;30.00
75521;BME280;64102;48.628;9.002;2023-04-05T08:28:11;96430.06;;;12.39;29.16
75521;BME280;64102;48.628;9.002;2023-04-05T08:30:37;96429.66;;;12.34;28.84
75521;BME280;64102;48.628;9.002;2023-04-05T08:33:03;96429.00;;;12.69;27.71
75521;BME280;64102;48.628;9.002;2023-04-05T08:35:29;96425.59;;;12.96;28.49
75521;BME280;64102;48.628;9.002;2023-04-05T08:37:54;96429.47;;;13.55;27.72
75521;BME280;64102;48.628;9.002;2023-04-05T08:40:20;96431.09;;;14.17;26.47
75521;BME280;64102;48.628;9.002;2023-04-05T08:42:51;96426.28;;;14.48;25.53
75521;BME280;64102;48.628;9.002;2023-04-05T08:45:17;96424.47;;;14.40;25.87
75521;BME280;64102;48.628;9.002;2023-04-05T08:47:47;96424.03;;;15.37;24.37
75521;BME280;64102;48.628;9.002;2023-04-05T08:50:13;96438.56;;;13.94;25.13
75521;BME280;64102;48.628;9.002;2023-04-05T08:52:39;96433.38;;;13.41;24.94
75521;BME280;64102;48.628;9.002;2023-04-05T08:55:07;96426.75;;;12.84;26.10
75521;BME280;64102;48.628;9.002;2023-04-05T08:57:36;96436.13;;;12.57;26.80
75521;BME280;64102;48.628;9.002;2023-04-05T09:00:02;96436.28;;;11.61;26.24
75521;BME280;64102;48.628;9.002;2023-04-05T09:02:28;96438.91;;;13.11;28.39
75521;BME280;64102;48.628;9.002;2023-04-05T09:04:55;96429.53;;;13.63;25.46
75521;BME280;64102;48.628;9.002;2023-04-05T09:07:20;96431.00;;;12.48;29.34
75521;BME280;64102;48.628;9.002;2023-04-05T09:09:49;96432.78;;;14.00;25.41
75521;BME280;64102;48.628;9.002;2023-04-05T09:12:20;96430.31;;;15.18;24.35
75521;BME280;64102;48.628;9.002;2023-04-05T09:14:50;96431.91;;;15.77;22.13
75521;BME280;64102;48.628;9.002;2023-04-05T09:17:17;96424.50;;;15.40;21.49
75521;BME280;64102;48.628;9.002;2023-04-05T09:19:43;96425.75;;;16.02;21.23
75521;BME280;64102;48.628;9.002;2023-04-05T09:22:09;96433.22;;;16.13;21.06
75521;BME280;64102;48.628;9.002;2023-04-05T09:24:41;96430.06;;;14.27;25.99
75521;BME280;64102;48.628;9.002;2023-04-05T09:27:17;96427.66;;;14.94;22.44
75521;BME280;64102;48.628;9.002;2023-04-05T09:29:45;96431.81;;;14.78;22.72
75521;BME280;64102;48.628;9.002;2023-04-05T09:32:11;96431.97;;;14.00;24.11
75521;BME280;64102;48.628;9.002;2023-04-05T09:34:39;96429.59;;;14.32;23.89
75521;BME280;64102;48.628;9.002;2023-04-05T09:37:15;96436.69;;;15.32;25.29
75521;BME280;64102;48.628;9.002;2023-04-05T09:39:42;96426.94;;;15.26;24.73
75521;BME280;64102;48.628;9.002;2023-04-05T09:42:12;96425.06;;;15.52;23.18
75521;BME280;64102;48.628;9.002;2023-04-05T09:44:59;96425.41;;;14.99;25.43
75521;BME280;64102;48.628;9.002;2023-04-05T09:47:30;96429.78;;;10.79;27.50
75521;BME280;64102;48.628;9.002;2023-04-05T09:49:57;96424.28;;;13.55;25.10
75521;BME280;64102;48.628;9.002;2023-04-05T09:52:28;96430.50;;;15.24;24.18
75521;BME280;64102;48.628;9.002;2023-04-05T09:54:57;96424.50;;;15.24;21.67
75521;BME280;64102;48.628;9.002;2023-04-05T09:57:23;96423.00;;;15.13;22.79
75521;BME280;64102;48.628;9.002;2023-04-05T09:59:53;96414.22;;;15.14;23.77
75521;BME280;64102;48.628;9.002;2023-04-05T10:02:20;96418.53;;;14.56;24.29
75521;BME280;64102;48.628;9.002;2023-04-05T10:04:47;96420.97;;;14.91;23.92
75521;BME280;64102;48.628;9.002;2023-04-05T10:07:14;96414.34;;;13.15;24.42
75521;BME280;64102;48.628;9.002;2023-04-05T10:09:42;96413.16;;;13.27;25.64
75521;BME280;64102;48.628;9.002;2023-04-05T10:12:08;96418.59;;;14.38;22.41
75521;BME280;64102;48.628;9.002;2023-04-05T10:14:35;96417.56;;;16.30;21.83
75521;BME280;64102;48.628;9.002;2023-04-05T10:20:06;96405.22;;;17.49;18.47
75521;BME280;64102;48.628;9.002;2023-04-05T10:22:52;96415.50;;;16.80;21.72
75521;BME280;64102;48.628;9.002;2023-04-05T10:28:31;96404.25;;;15.60;23.18
75521;BME280;64102;48.628;9.002;2023-04-05T10:31:11;96402.16;;;15.63;21.48
75521;BME280;64102;48.628;9.002;2023-04-05T10:33:44;96397.75;;;15.56;20.37
75521;BME280;64102;48.628;9.002;2023-04-05T10:36:38;96398.69;;;15.39;23.83
75521;BME280;64102;48.628;9.002;2023-04-05T10:39:15;96391.19;;;15.36;23.97
75521;BME280;64102;48.628;9.002;2023-04-05T10:41:46;96398.28;;;15.76;23.31
75521;BME280;64102;48.628;9.002;2023-04-05T10:44:13;96395.44;;;16.26;21.24
75521;BME280;64102;48.628;9.002;2023-04-05T10:46:40;96408.03;;;13.88;23.83
75521;BME280;64102;48.628;9.002;2023-04-05T10:51:32;96402.75;;;12.54;25.47
75521;BME280;64102;48.628;9.002;2023-04-05T10:53:59;96390.91;;;13.07;25.22
75521;BME280;64102;48.628;9.002;2023-04-05T10:56:25;96397.16;;;12.59;23.96
75521;BME280;64102;48.628;9.002;2023-04-05T10:58:52;96387.97;;;14.42;24.29
75521;BME280;64102;48.628;9.002;2023-04-05T11:01:18;96389.47;;;15.77;22.87
75521;BME280;64102;48.628;9.002;2023-04-05T11:09:23;96395.31;;;14.88;25.19
75521;BME280;64102;48.628;9.002;2023-04-05T11:11:51;96385.59;;;16.52;21.71
75521;BME280;64102;48.628;9.002;2023-04-05T11:14:23;96386.38;;;14.49;24.58
75521;BME280;64102;48.628;9.002;2023-04-05T11:16:53;96390.59;;;15.98;23.27
75521;BME280;64102;48.628;9.002;2023-04-05T11:19:47;96384.00;;;17.52;19.62
75521;BME280;64102;48.628;9.002;2023-04-05T11:22:23;96374.50;;;17.28;20.55
75521;BME280;64102;48.628;9.002;2023-04-05T11:24:49;96375.47;;;18.18;20.42
75521;BME280;64102;48.628;9.002;2023-04-05T11:27:16;96373.22;;;17.32;20.72
75521;BME280;64102;48.628;9.002;2023-04-05T11:29:46;96364.00;;;16.90;20.20
75521;BME280;64102;48.628;9.002;2023-04-05T11:32:15;96365.34;;;16.78;21.71
75521;BME280;64102;48.628;9.002;2023-04-05T11:34:42;96357.06;;;17.51;18.38
75521;BME280;64102;48.628;9.002;2023-04-05T11:37:08;96347.91;;;18.30;18.68
75521;BME280;64102;48.628;9.002;2023-04-05T11:39:33;96358.19;;;19.68;17.71
75521;BME280;64102;48.628;9.002;2023-04-05T11:42:02;96350.41;;;18.97;20.64
75521;BME280;64102;48.628;9.002;2023-04-05T11:44:38;96353.22;;;18.22;20.15
75521;BME280;64102;48.628;9.002;2023-04-05T11:47:04;96350.75;;;13.81;22.52
75521;BME280;64102;48.628;9.002;2023-04-05T11:49:30;96350.56;;;14.34;26.13
75521;BME280;64102;48.628;9.002;2023-04-05T11:51:55;96353.53;;;13.44;25.38
75521;BME280;64102;48.628;9.002;2023-04-05T11:54:31;96345.78;;;14.82;23.22
75521;BME280;64102;48.628;9.002;2023-04-05T11:56:57;96350.56;;;15.99;20.97
75521;BME280;64102;48.628;9.002;2023-04-05T11:59:33;96342.94;;;13.56;21.67
75521;BME280;64102;48.628;9.002;2023-04-05T12:02:03;96342.34;;;14.81;20.29
75521;BME280;64102;48.628;9.002;2023-04-05T12:04:34;96340.94;;;14.19;19.63
75521;BME280;64102;48.628;9.002;2023-04-05T12:07:14;96344.50;;;15.10;21.24
75521;BME280;64102;48.628;9.002;2023-04-05T12:10:06;96332.28;;;13.41;24.85
75521;BME280;64102;48.628;9.002;2023-04-05T12:12:42;96339.03;;;15.21;21.80
75521;BME280;64102;48.628;9.002;2023-04-05T12:15:10;96332.22;;;15.77;20.18
75521;BME280;64102;48.628;9.002;2023-04-05T12:17:47;96326.56;;;16.36;20.17
75521;BME280;64102;48.628;9.002;2023-04-05T12:20:16;96328.00;;;15.35;19.39
75521;BME280;64102;48.628;9.002;2023-04-05T12:22:44;96325.22;;;15.29;19.30
75521;BME280;64102;48.628;9.002;2023-04-05T12:25:10;96320.03;;;13.95;22.34
75521;BME280;64102;48.628;9.002;2023-04-05T12:27:36;96325.28;;;14.78;21.60
75521;BME280;64102;48.628;9.002;2023-04-05T12:30:19;96322.00;;;15.75;19.73
75521;BME280;64102;48.628;9.002;2023-04-05T12:32:50;96313.53;;;17.52;19.17
75521;BME280;64102;48.628;9.002;2023-04-05T12:35:22;96307.69;;;17.04;19.14
75521;BME280;64102;48.628;9.002;2023-04-05T12:37:57;96313.69;;;18.54;16.02
75521;BME280;64102;48.628;9.002;2023-04-05T12:40:23;96306.53;;;17.52;18.66
75521;BME280;64102;48.628;9.002;2023-04-05T12:42:49;96319.03;;;15.30;23.54
75521;BME280;64102;48.628;9.002;2023-04-05T12:45:15;96318.69;;;15.97;22.77
75521;BME280;64102;48.628;9.002;2023-04-05T12:47:50;96311.25;;;15.21;24.69
75521;BME280;64102;48.628;9.002;2023-04-05T12:50:17;96309.28;;;16.82;20.25
75521;BME280;64102;48.628;9.002;2023-04-05T12:55:18;96298.50;;;17.76;20.63
75521;BME280;64102;48.628;9.002;2023-04-05T12:57:48;96290.16;;;18.25;17.47
75521;BME280;64102;48.628;9.002;2023-04-05T13:00:14;96298.03;;;17.58;19.65
75521;BME280;64102;48.628;9.002;2023-04-05T13:02:40;96299.25;;;18.58;17.95
75521;BME280;64102;48.628;9.002;2023-04-05T13:05:05;96300.03;;;17.71;19.44
75521;BME280;64102;48.628;9.002;2023-04-05T13:07:31;96293.78;;;16.50;19.78
75521;BME280;64102;48.628;9.002;2023-04-05T13:09:56;96296.84;;;16.92;21.23
75521;BME280;64102;48.628;9.002;2023-04-05T13:12:21;96285.66;;;17.89;20.12
75521;BME280;64102;48.628;9.002;2023-04-05T13:14:47;96283.19;;;16.90;19.36
75521;BME280;64102;48.628;9.002;2023-04-05T13:17:12;96293.38;;;15.43;21.41
75521;BME280;64102;48.628;9.002;2023-04-05T13:19:37;96275.25;;;15.90;19.31
75521;BME280;64102;48.628;9.002;2023-04-05T13:22:03;96284.56;;;15.11;21.49
75521;BME280;64102;48.628;9.002;2023-04-05T13:24:28;96272.06;;;16.66;21.73
75521;BME280;64102;48.628;9.002;2023-04-05T13:26:53;96266.16;;;16.41;19.43
75521;BME280;64102;48.628;9.002;2023-04-05T13:29:19;96274.75;;;16.80;18.13
75521;BME280;64102;48.628;9.002;2023-04-05T13:31:44;96261.84;;;17.10;18.36
75521;BME280;64102;48.628;9.002;2023-04-05T13:34:10;96260.16;;;13.88;21.66
75521;BME280;64102;48.628;9.002;2023-04-05T13:36:35;96260.78;;;14.58;21.88
75521;BME280;64102;48.628;9.002;2023-04-05T13:39:00;96263.09;;;14.27;22.82
75521;BME280;64102;48.628;9.002;2023-04-05T13:41:26;96262.75;;;12.66;22.26
75521;BME280;64102;48.628;9.002;2023-04-05T13:43:51;96261.94;;;12.20;22.82
75521;BME280;64102;48.628;9.002;2023-04-05T13:46:17;96251.53;;;12.75;21.32
75521;BME280;64102;48.628;9.002;2023-04-05T13:48:42;96253.47;;;13.52;21.42
75521;BME280;64102;48.628;9.002;2023-04-05T13:51:07;96244.38;;;13.48;21.96
75521;BME280;64102;48.628;9.002;2023-04-05T13:53:33;96251.47;;;12.84;21.67
75521;BME280;64102;48.628;9.002;2023-04-05T13:55:58;96256.53;;;11.67;22.78
75521;BME280;64102;48.628;9.002;2023-04-05T13:58:23;96248.09;;;12.56;23.02
75521;BME280;64102;48.628;9.002;2023-04-05T14:00:51;96244.59;;;12.03;22.33
75521;BME280;64102;48.628;9.002;2023-04-05T14:03:16;96244.69;;;12.11;21.95
75521;BME280;64102;48.628;9.002;2023-04-05T14:05:41;96245.47;;;12.66;21.96
75521;BME280;64102;48.628;9.002;2023-04-05T14:08:07;96242.72;;;14.06;22.82
75521;BME280;64102;48.628;9.002;2023-04-05T14:10:32;96233.97;;;13.73;22.03
75521;BME280;64102;48.628;9.002;2023-04-05T14:12:58;96232.88;;;13.84;22.91
75521;BME280;64102;48.628;9.002;2023-04-05T14:15:23;96226.72;;;14.77;21.82
75521;BME280;64102;48.628;9.002;2023-04-05T14:17:49;96227.22;;;14.72;20.19
75521;BME280;64102;48.628;9.002;2023-04-05T14:20:14;96228.66;;;15.48;19.35
75521;BME280;64102;48.628;9.002;2023-04-05T14:22:40;96227.53;;;15.10;19.26
75521;BME280;64102;48.628;9.002;2023-04-05T14:25:05;96227.38;;;16.15;18.97
75521;BME280;64102;48.628;9.002;2023-04-05T14:27:32;96224.38;;;16.57;18.35
75521;BME280;64102;48.628;9.002;2023-04-05T14:30:00;96219.16;;;16.26;17.69
75521;BME280;64102;48.628;9.002;2023-04-05T14:32:25;96217.44;;;14.58;19.96
75521;BME280;64102;48.628;9.002;2023-04-05T14:34:51;96225.25;;;14.16;21.66
75521;BME280;64102;48.628;9.002;2023-04-05T14:37:16;96224.34;;;13.92;23.50
75521;BME280;64102;48.628;9.002;2023-04-05T14:39:42;96213.66;;;13.95;23.45
75521;BME280;64102;48.628;9.002;2023-04-05T14:42:08;96208.16;;;13.64;22.50
75521;BME280;64102;48.628;9.002;2023-04-05T14:44:33;96205.22;;;13.33;22.63
75521;BME280;64102;48.628;9.002;2023-04-05T14:46:59;96207.06;;;14.16;21.76
75521;BME280;64102;48.628;9.002;2023-04-05T14:49:24;96204.47;;;14.50;23.20
75521;BME280;64102;48.628;9.002;2023-04-05T14:51:50;96210.97;;;14.87;23.27
75521;BME280;64102;48.628;9.002;2023-04-05T14:54:16;96209.03;;;15.13;21.84
75521;BME280;64102;48.628;9.002;2023-04-05T14:56:41;96203.03;;;15.20;21.95
75521;BME280;64102;48.628;9.002;2023-04-05T14:59:06;96205.91;;;14.11;21.67
75521;BME280;64102;48.628;9.002;2023-04-05T15:01:32;96198.94;;;13.69;23.36
75521;BME280;64102;48.628;9.002;2023-04-05T15:03:57;96198.75;;;14.47;22.11
75521;BME280;64102;48.628;9.002;2023-04-05T15:06:23;96203.19;;;15.03;19.63
75521;BME280;64102;48.628;9.002;2023-04-05T15:08:48;96201.09;;;14.90;20.32
75521;BME280;64102;48.628;9.002;2023-04-05T15:11:14;96201.72;;;15.16;19.67
75521;BME280;64102;48.628;9.002;2023-04-05T15:13:39;96199.78;;;14.94;19.80
75521;BME280;64102;48.628;9.002;2023-04-05T15:16:05;96193.63;;;13.19;21.92
75521;BME280;64102;48.628;9.002;2023-04-05T15:18:30;96185.00;;;13.36;21.71
75521;BME280;64102;48.628;9.002;2023-04-05T15:20:56;96184.66;;;13.39;22.63
75521;BME280;64102;48.628;9.002;2023-04-05T15:23:21;96191.31;;;13.68;22.17
75521;BME280;64102;48.628;9.002;2023-04-05T15:25:47;96189.44;;;13.78;21.18
75521;BME280;64102;48.628;9.002;2023-04-05T15:28:12;96192.38;;;13.83;21.90
75521;BME280;64102;48.628;9.002;2023-04-05T15:30:37;96193.84;;;13.94;21.10
75521;BME280;64102;48.628;9.002;2023-04-05T15:33:03;96191.13;;;13.61;21.49
75521;BME280;64102;48.628;9.002;2023-04-05T15:35:28;96196.38;;;13.18;22.76
75521;BME280;64102;48.628;9.002;2023-04-05T15:37:54;96183.94;;;13.47;23.14
75521;BME280;64102;48.628;9.002;2023-04-05T15:40:20;96185.00;;;13.36;22.77
75521;BME280;64102;48.628;9.002;2023-04-05T15:42:45;96189.44;;;12.65;23.19
75521;BME280;64102;48.628;9.002;2023-04-05T15:45:11;96184.41;;;12.46;26.96
75521;BME280;64102;48.628;9.002;2023-04-05T15:47:37;96194.25;;;11.97;28.70
75521;BME280;64102;48.628;9.002;2023-04-05T15:50:03;96192.31;;;11.82;28.49
75521;BME280;64102;48.628;9.002;2023-04-05T15:52:29;96189.50;;;11.93;29.03
75521;BME280;64102;48.628;9.002;2023-04-05T15:54:54;96189.81;;;11.90;27.81
75521;BME280;64102;48.628;9.002;2023-04-05T15:57:20;96186.16;;;11.46;28.59
75521;BME280;64102;48.628;9.002;2023-04-05T15:59:45;96183.72;;;12.08;27.88
75521;BME280;64102;48.628;9.002;2023-04-05T16:02:11;96184.28;;;11.75;28.32
75521;BME280;64102;48.628;9.002;2023-04-05T16:04:36;96192.41;;;10.97;27.82
75521;BME280;64102;48.628;9.002;2023-04-05T16:07:03;96191.75;;;11.41;28.38
75521;BME280;64102;48.628;9.002;2023-04-05T16:09:28;96188.78;;;11.36;28.02
75521;BME280;64102;48.628;9.002;2023-04-05T16:11:54;96187.13;;;10.31;27.36
75521;BME280;64102;48.628;9.002;2023-04-05T16:14:20;96183.84;;;10.39;30.48
75521;BME280;64102;48.628;9.002;2023-04-05T16:16:45;96189.56;;;10.42;29.26
75521;BME280;64102;48.628;9.002;2023-04-05T16:19:11;96183.03;;;10.76;28.97
75521;BME280;64102;48.628;9.002;2023-04-05T16:21:36;96185.88;;;10.54;29.22
75521;BME280;64102;48.628;9.002;2023-04-05T16:24:02;96183.88;;;9.89;30.89
75521;BME280;64102;48.628;9.002;2023-04-05T16:26:29;96180.47;;;9.49;31.04
75521;BME280;64102;48.628;9.002;2023-04-05T16:28:54;96178.81;;;8.87;32.14
75521;BME280;64102;48.628;9.002;2023-04-05T16:31:20;96184.97;;;8.95;32.90
75521;BME280;64102;48.628;9.002;2023-04-05T16:33:45;96178.44;;;8.91;31.94
75521;BME280;64102;48.628;9.002;2023-04-05T16:36:11;96181.19;;;8.79;33.62
75521;BME280;64102;48.628;9.002;2023-04-05T16:38:36;96185.56;;;8.67;34.61
75521;BME280;64102;48.628;9.002;2023-04-05T16:41:02;96189.13;;;8.55;32.13
75521;BME280;64102;48.628;9.002;2023-04-05T16:43:28;96189.50;;;8.50;32.00
75521;BME280;64102;48.628;9.002;2023-04-05T16:45:53;96184.16;;;8.42;34.06
75521;BME280;64102;48.628;9.002;2023-04-05T16:48:18;96187.78;;;8.40;33.90
75521;BME280;64102;48.628;9.002;2023-04-05T16:50:44;96181.50;;;8.33;32.38
75521;BME280;64102;48.628;9.002;2023-04-05T16:53:10;96179.88;;;8.21;33.90
75521;BME280;64102;48.628;9.002;2023-04-05T16:55:36;96188.22;;;8.02;35.61
75521;BME280;64102;48.628;9.002;2023-04-05T16:58:01;96188.25;;;7.80;34.41
75521;BME280;64102;48.628;9.002;2023-04-05T17:00:26;96192.81;;;7.65;35.89
75521;BME280;64102;48.628;9.002;2023-04-05T17:02:53;96192.84;;;7.43;35.24
75521;BME280;64102;48.628;9.002;2023-04-05T17:05:18;96198.53;;;7.24;36.53
75521;BME280;64102;48.628;9.002;2023-04-05T17:07:44;96203.09;;;7.09;35.93
75521;BME280;64102;48.628;9.002;2023-04-05T17:10:09;96199.53;;;6.88;36.85
75521;BME280;64102;48.628;9.002;2023-04-05T17:12:35;96206.63;;;6.73;37.83
75521;BME280;64102;48.628;9.002;2023-04-05T17:15:01;96212.03;;;6.58;38.62
75521;BME280;64102;48.628;9.002;2023-04-05T17:17:27;96212.00;;;6.47;37.51
75521;BME280;64102;48.628;9.002;2023-04-05T17:19:52;96212.91;;;6.46;38.33
75521;BME280;64102;48.628;9.002;2023-04-05T17:22:18;96212.09;;;6.45;39.35
75521;BME280;64102;48.628;9.002;2023-04-05T17:24:44;96212.66;;;6.38;37.49
75521;BME280;64102;48.628;9.002;2023-04-05T17:27:10;96207.72;;;6.35;37.99
75521;BME280;64102;48.628;9.002;2023-04-05T17:29:36;96210.53;;;6.32;38.79
75521;BME280;64102;48.628;9.002;2023-04-05T17:32:01;96212.91;;;6.22;37.74
75521;BME280;64102;48.628;9.002;2023-04-05T17:34:27;96221.84;;;6.16;38.93
75521;BME280;64102;48.628;9.002;2023-04-05T17:36:52;96220.97;;;6.05;38.60
75521;BME280;64102;48.628;9.002;2023-04-05T17:39:18;96222.66;;;5.93;38.91
75521;BME280;64102;48.628;9.002;2023-04-05T17:41:43;96227.44;;;5.85;40.01
75521;BME280;64102;48.628;9.002;2023-04-05T17:44:10;96229.94;;;5.74;40.95
75521;BME280;64102;48.628;9.002;2023-04-05T17:46:36;96216.75;;;5.55;41.14
75521;BME280;64102;48.628;9.002;2023-04-05T17:49:01;96224.75;;;5.50;40.64
75521;BME280;64102;48.628;9.002;2023-04-05T17:51:26;96220.06;;;5.44;41.63
75521;BME280;64102;48.628;9.002;2023-04-05T17:53:52;96222.91;;;5.27;44.05
75521;BME280;64102;48.628;9.002;2023-04-05T17:56:17;96226.59;;;5.10;45.20
75521;BME280;64102;48.628;9.002;2023-04-05T17:58:43;96222.00;;;5.03;43.99
75521;BME280;64102;48.628;9.002;2023-04-05T18:01:14;96226.00;;;4.94;43.45
75521;BME280;64102;48.628;9.002;2023-04-05T18:03:41;96221.38;;;4.86;42.88
75521;BME280;64102;48.628;9.002;2023-04-05T18:06:06;96231.47;;;4.63;42.76
75521;BME280;64102;48.628;9.002;2023-04-05T18:08:32;96229.41;;;4.55;44.65
75521;BME280;64102;48.628;9.002;2023-04-05T18:10:58;96230.38;;;4.40;45.48
75521;BME280;64102;48.628;9.002;2023-04-05T18:13:25;96227.25;;;4.22;48.10
75521;BME280;64102;48.628;9.002;2023-04-05T18:15:54;96233.78;;;3.99;46.63
75521;BME280;64102;48.628;9.002;2023-04-05T18:18:21;96233.81;;;3.85;46.96
75521;BME280;64102;48.628;9.002;2023-04-05T18:20:53;96240.22;;;3.64;48.10
75521;BME280;64102;48.628;9.002;2023-04-05T18:23:19;96243.75;;;3.76;45.72
75521;BME280;64102;48.628;9.002;2023-04-05T18:25:52;96242.50;;;3.69;47.47
75521;BME280;64102;48.628;9.002;2023-04-05T18:28:18;96245.94;;;3.39;47.21
75521;BME280;64102;48.628;9.002;2023-04-05T18:30:44;96248.50;;;3.39;48.56